Aviation Digital Data Service (ADDS)

Output produced by METARs form (1307 UTC 21 February 2018)
found at http://www.aviationweather.gov/adds/metars/
 
KSAN 201510Z 2015/2118 VRB04KT P6SM FEW040 FEW150 
     FM202000 29009KT P6SM SKC 
     FM210100 VRB04KT P6SM SKC
       
KSAT 201518Z 2015/2118 13013G23KT 5SM -RA BR VCTS BKN012CB OVC028 
     FM201700 16013KT 6SM -SHRA OVC012 
     FM202300 14009KT P6SM OVC035 
     FM210900 13006KT 4SM -TSRA BKN050CB
       
KSDF 201130Z 2012/2118 19011G19KT P6SM SCT070 BKN250 WS020/21045KT 
     FM201500 19021G30KT P6SM SCT070 BKN250 
     FM210000 19014G23KT P6SM SCT035 BKN110 
     FM211000 20015G24KT 6SM -SHRA BR SCT020 BKN030 
     FM211400 30009KT 5SM SHRA BKN010 OVC020
       
KSEA 201401Z 2014/2118 13006KT P6SM SCT050 BKN100 
     FM201800 11006KT P6SM SCT045 OVC070 
     FM202100 07005KT P6SM OVC045 
     FM210200 02008KT P6SM BKN050 BKN200 
     FM210500 03008KT P6SM FEW060 SCT250
       
KSFO 201457Z 2015/2118 30005KT P6SM SKC 
     FM202100 29009KT P6SM FEW120 
     FM210400 26006KT P6SM SCT060 BKN200 
     FM210900 VRB04KT P6SM SCT030 BKN100 
     FM211200 VRB04KT P6SM VCSH BKN050
       
TAF KSKA 201100Z 2011/2117 16009KT 9999 FEW080 SCT160 QNH3009INS 
     BECMG 2019/2020 20012KT 9999 SCT050 BKN120 QNH3016INS 
     BECMG 2103/2104 04009KT 9999 BKN050 QNH3017INS 
     BECMG 2108/2109 05009KT 9999 FEW040 QNH3021INS TXM05/2023Z TNM13/2015Z
       
TAF AMD KSKF 211247Z 2112/2216 05006KT 9999 BKN013 QNH2992INS 
     BECMG 2116/2117 01010G20KT 8000 -SHRA BKN015 QNH2990INS 
     TEMPO 2117/2124 02015G25KT 
     BECMG 2201/2202 01012G18KT 9999 NSW OVC010 QNH2995INS 
     BECMG 2210/2211 01010G15KT 8000 -SHRA OVC010 QNH2998INS TX23/2119Z TN04/2203Z
       
KSLC 201446Z 2015/2118 18004KT P6SM VCSH SCT020 BKN060 OVC080 
     FM201900 30006KT P6SM SCT050 BKN080 
     FM210300 16006KT P6SM SCT080 SCT120
       
TAF KSLI 211301Z 2113/2219 VRB06KT 9999 SCT120 QNH3009INS 
     BECMG 2118/2119 21009KT 9999 FEW150 QNH3011INS 
     BECMG 2202/2203 VRB06KT 9999 BKN200 QNH3014INS 
     BECMG 2217/2218 22009KT 9999 SCT200 QNH3024INS TX14/2122Z TN03/2114Z
       
KSME 211244Z 2113/2212 19009G20KT P6SM VCSH SCT030 BKN060 WS020/21040KT 
     TEMPO 2113/2115 BKN030 
     FM211500 21009KT P6SM VCSH BKN040 
     FM211800 27007KT P6SM -SHRA OVC025 
     FM212100 VRB05KT 4SM -SHRA OVC015 
     FM220600 VRB03KT 2SM SHRA OVC005
       
TAF AMD KSSC 201459Z 2014/2114 10002KT 0400 FG OVC001 QNH3035INS 
     BECMG 2015/2016 15006KT 4800 BR BKN005 OVC025 QNH3035INS 
     BECMG 2016/2017 15012KT 9999 NSW FEW015 BKN030 QNH3038INS 
     BECMG 2021/2022 15006KT 9999 BKN025 BKN040 QNH3042INS 
     BECMG 2105/2106 16006KT 8000 BR BKN005 BKN015 QNH3045INS 
     TEMPO 2110/2114 2400 BR OVC002 TX24/2020Z TN17/2014Z
       
KSTL 201510Z 2015/2118 20015G25KT 6SM -SHRA VCTS OVC025CB 
     FM202100 21014G23KT 5SM -SHRA VCTS OVC015CB 
     FM210000 30011KT 3SM -SHRA OVC008 
     FM210600 34013G20KT 6SM -RA OVC008 
     FM210900 34012KT P6SM OVC015 
     FM211200 35010KT P6SM BKN110
       
KSUN 201418Z 2014/2118 VRB06KT 6SM -SN BR SCT015 OVC050 
     TEMPO 2014/2015 2SM -SN BR SCT013 BKN017 OVC030 
     FM201800 15007KT P6SM VCSH BKN035 
     FM210100 30005KT P6SM SCT080 
     FM210600 31008KT P6SM SCT040 BKN080
       
TAF KSUU 201103Z 2011/2117 03009KT 9999 SCT085 QNH3010INS 
     BECMG 2020/2021 24009KT 9999 BKN120 QNH3015INS 
     BECMG 2111/2112 25009KT 8000 -SHRA BKN030 QNH3013INS TX10/2023Z TNM04/2012Z
       
KSWF 211306Z 2113/2218 24005KT 6SM BR BKN010 
     FM211400 23007KT P6SM SCT035 
     FM211800 24012G18KT P6SM SCT035 BKN250 
     FM212100 23008KT P6SM VCSH BKN035 
     FM220100 34010G16KT P6SM VCSH BKN035 
     FM220500 36005KT P6SM VCSH BKN035 
     FM221500 04012KT 5SM -SHRA BR BKN025 AMD NOT SKED
       
TAF AMD KSZL 211232Z 2112/2217 34009KT 9999 FEW015 OVC150 QNH3035INS 
     BECMG 2123/2124 04012KT 9999 BKN025 BKN150 QNH3040INS 
     BECMG 2206/2207 06010G15KT 6000 -FZRA -PL OVC010 690003 660454 QNH3038INS 
     BECMG 2208/2209 08012KT 3200 -FZRA BR OVC007 690003 660454 QNH3030INS TX00/2121Z TNM07/2112Z